sensor_id;sensor_type;location;lat;lon;timestamp;P1;durP1;ratioP1;P2;durP2;ratioP2
46875;SDS011;32866;50.160;14.768;2023-04-15T00:02:19;2.28;;;1.83;;
46875;SDS011;32866;50.160;14.768;2023-04-15T00:04:45;2.83;;;2.20;;
46875;SDS011;32866;50.160;14.768;2023-04-15T00:07:11;2.37;;;1.63;;
46875;SDS011;32866;50.160;14.768;2023-04-15T00:09:36;3.65;;;2.03;;
46875;SDS011;32866;50.160;14.768;2023-04-15T00:12:01;2.72;;;2.40;;
46875;SDS011;32866;50.160;14.768;2023-04-15T00:14:27;2.13;;;1.63;;
46875;SDS011;32866;50.160;14.768;2023-04-15T00:16:53;2.88;;;1.77;;
46875;SDS011;32866;50.160;14.768;2023-04-15T00:19:20;1.97;;;1.43;;
46875;SDS011;32866;50.160;14.768;2023-04-15T00:21:45;1.60;;;1.30;;
46875;SDS011;32866;50.160;14.768;2023-04-15T00:24:11;2.40;;;1.20;;
46875;SDS011;32866;50.160;14.768;2023-04-15T00:26:37;1.35;;;1.00;;
46875;SDS011;32866;50.160;14.768;2023-04-15T00:29:03;4.18;;;1.23;;
46875;SDS011;32866;50.160;14.768;2023-04-15T00:31:28;1.00;;;0.90;;
46875;SDS011;32866;50.160;14.768;2023-04-15T00:36:19;3.23;;;0.80;;
46875;SDS011;32866;50.160;14.768;2023-04-15T00:38:45;1.10;;;1.00;;
46875;SDS011;32866;50.160;14.768;2023-04-15T00:41:10;1.15;;;1.05;;
46875;SDS011;32866;50.160;14.768;2023-04-15T00:46:03;3.00;;;0.97;;
46875;SDS011;32866;50.160;14.768;2023-04-15T00:48:30;1.00;;;0.90;;
46875;SDS011;32866;50.160;14.768;2023-04-15T00:53:21;1.30;;;0.90;;
46875;SDS011;32866;50.160;14.768;2023-04-15T00:55:46;1.17;;;0.88;;
46875;SDS011;32866;50.160;14.768;2023-04-15T00:58:12;1.90;;;1.23;;
46875;SDS011;32866;50.160;14.768;2023-04-15T01:00:37;1.38;;;0.90;;
46875;SDS011;32866;50.160;14.768;2023-04-15T01:03:02;1.55;;;0.95;;
46875;SDS011;32866;50.160;14.768;2023-04-15T01:05:28;1.65;;;1.00;;
46875;SDS011;32866;50.160;14.768;2023-04-15T01:07:55;1.47;;;1.10;;
46875;SDS011;32866;50.160;14.768;2023-04-15T01:10:20;1.08;;;0.70;;
46875;SDS011;32866;50.160;14.768;2023-04-15T01:12:46;0.77;;;0.75;;
46875;SDS011;32866;50.160;14.768;2023-04-15T01:15:11;1.02;;;0.77;;
46875;SDS011;32866;50.160;14.768;2023-04-15T01:17:37;1.02;;;0.90;;
46875;SDS011;32866;50.160;14.768;2023-04-15T01:20:03;1.00;;;0.95;;
46875;SDS011;32866;50.160;14.768;2023-04-15T01:22:30;0.93;;;0.90;;
46875;SDS011;32866;50.160;14.768;2023-04-15T01:25:04;1.80;;;1.23;;
46875;SDS011;32866;50.160;14.768;2023-04-15T01:27:33;0.83;;;0.83;;
46875;SDS011;32866;50.160;14.768;2023-04-15T01:29:59;0.90;;;0.73;;
46875;SDS011;32866;50.160;14.768;2023-04-15T01:32:25;0.80;;;0.80;;
46875;SDS011;32866;50.160;14.768;2023-04-15T01:34:51;2.22;;;0.90;;
46875;SDS011;32866;50.160;14.768;2023-04-15T01:37:16;0.85;;;0.85;;
46875;SDS011;32866;50.160;14.768;2023-04-15T01:39:41;0.80;;;0.80;;
46875;SDS011;32866;50.160;14.768;2023-04-15T01:42:07;0.75;;;0.75;;
46875;SDS011;32866;50.160;14.768;2023-04-15T01:44:32;2.70;;;1.00;;
46875;SDS011;32866;50.160;14.768;2023-04-15T01:46:57;0.73;;;0.73;;
46875;SDS011;32866;50.160;14.768;2023-04-15T01:49:23;0.88;;;0.80;;
46875;SDS011;32866;50.160;14.768;2023-04-15T01:51:48;0.88;;;0.88;;
46875;SDS011;32866;50.160;14.768;2023-04-15T01:54:14;2.30;;;1.27;;
46875;SDS011;32866;50.160;14.768;2023-04-15T01:56:39;1.77;;;1.25;;
46875;SDS011;32866;50.160;14.768;2023-04-15T01:59:05;1.20;;;1.10;;
46875;SDS011;32866;50.160;14.768;2023-04-15T02:01:30;3.55;;;1.42;;
46875;SDS011;32866;50.160;14.768;2023-04-15T02:03:55;1.30;;;1.20;;
46875;SDS011;32866;50.160;14.768;2023-04-15T02:06:21;2.45;;;1.33;;
46875;SDS011;32866;50.160;14.768;2023-04-15T02:08:46;1.33;;;0.85;;
46875;SDS011;32866;50.160;14.768;2023-04-15T02:11:12;2.78;;;1.05;;
46875;SDS011;32866;50.160;14.768;2023-04-15T02:13:37;1.48;;;1.13;;
46875;SDS011;32866;50.160;14.768;2023-04-15T02:16:02;3.00;;;1.08;;
46875;SDS011;32866;50.160;14.768;2023-04-15T02:18:28;1.38;;;1.17;;
46875;SDS011;32866;50.160;14.768;2023-04-15T02:20:53;1.33;;;1.05;;
46875;SDS011;32866;50.160;14.768;2023-04-15T02:23:21;1.77;;;1.60;;
46875;SDS011;32866;50.160;14.768;2023-04-15T02:25:46;1.38;;;1.20;;
46875;SDS011;32866;50.160;14.768;2023-04-15T02:28:11;2.17;;;1.30;;
46875;SDS011;32866;50.160;14.768;2023-04-15T02:30:37;1.70;;;1.60;;
46875;SDS011;32866;50.160;14.768;2023-04-15T02:33:04;1.50;;;1.40;;
46875;SDS011;32866;50.160;14.768;2023-04-15T02:35:31;2.57;;;2.30;;
46875;SDS011;32866;50.160;14.768;2023-04-15T02:37:56;3.67;;;2.70;;
46875;SDS011;32866;50.160;14.768;2023-04-15T02:40:21;3.90;;;2.50;;
46875;SDS011;32866;50.160;14.768;2023-04-15T02:42:47;3.47;;;2.53;;
46875;SDS011;32866;50.160;14.768;2023-04-15T02:45:13;2.92;;;2.30;;
46875;SDS011;32866;50.160;14.768;2023-04-15T02:47:38;2.25;;;2.05;;
46875;SDS011;32866;50.160;14.768;2023-04-15T02:50:09;2.33;;;1.70;;
46875;SDS011;32866;50.160;14.768;2023-04-15T02:52:38;2.13;;;1.77;;
46875;SDS011;32866;50.160;14.768;2023-04-15T02:55:04;2.57;;;2.37;;
46875;SDS011;32866;50.160;14.768;2023-04-15T02:59:55;4.00;;;1.73;;
46875;SDS011;32866;50.160;14.768;2023-04-15T03:02:21;2.28;;;1.80;;
46875;SDS011;32866;50.160;14.768;2023-04-15T03:04:46;3.22;;;2.60;;
46875;SDS011;32866;50.160;14.768;2023-04-15T03:07:12;3.85;;;3.45;;
46875;SDS011;32866;50.160;14.768;2023-04-15T03:09:38;4.35;;;3.67;;
46875;SDS011;32866;50.160;14.768;2023-04-15T03:12:05;5.57;;;4.37;;
46875;SDS011;32866;50.160;14.768;2023-04-15T03:14:30;6.75;;;5.47;;
46875;SDS011;32866;50.160;14.768;2023-04-15T03:16:56;8.00;;;6.25;;
46875;SDS011;32866;50.160;14.768;2023-04-15T03:19:23;7.77;;;5.77;;
46875;SDS011;32866;50.160;14.768;2023-04-15T03:21:48;7.72;;;6.30;;
46875;SDS011;32866;50.160;14.768;2023-04-15T03:24:13;8.63;;;7.25;;
46875;SDS011;32866;50.160;14.768;2023-04-15T03:26:39;7.47;;;4.95;;
46875;SDS011;32866;50.160;14.768;2023-04-15T03:29:05;5.90;;;4.88;;
46875;SDS011;32866;50.160;14.768;2023-04-15T03:31:30;3.83;;;3.42;;
46875;SDS011;32866;50.160;14.768;2023-04-15T03:33:55;6.38;;;4.38;;
46875;SDS011;32866;50.160;14.768;2023-04-15T03:36:21;4.07;;;3.65;;
46875;SDS011;32866;50.160;14.768;2023-04-15T03:38:46;4.40;;;3.42;;
46875;SDS011;32866;50.160;14.768;2023-04-15T03:41:13;3.43;;;3.13;;
46875;SDS011;32866;50.160;14.768;2023-04-15T03:43:38;3.20;;;2.88;;
46875;SDS011;32866;50.160;14.768;2023-04-15T03:46:04;3.13;;;2.83;;
46875;SDS011;32866;50.160;14.768;2023-04-15T03:48:29;3.42;;;2.95;;
46875;SDS011;32866;50.160;14.768;2023-04-15T03:50:55;3.22;;;2.67;;
46875;SDS011;32866;50.160;14.768;2023-04-15T03:53:20;2.85;;;2.50;;
46875;SDS011;32866;50.160;14.768;2023-04-15T03:55:46;3.00;;;2.47;;
46875;SDS011;32866;50.160;14.768;2023-04-15T03:58:11;2.58;;;2.15;;
46875;SDS011;32866;50.160;14.768;2023-04-15T04:00:37;2.25;;;2.05;;
46875;SDS011;32866;50.160;14.768;2023-04-15T04:03:06;2.27;;;2.07;;
46875;SDS011;32866;50.160;14.768;2023-04-15T04:05:32;2.20;;;1.98;;
46875;SDS011;32866;50.160;14.768;2023-04-15T04:07:57;2.28;;;2.03;;
46875;SDS011;32866;50.160;14.768;2023-04-15T04:10:23;1.83;;;1.73;;
46875;SDS011;32866;50.160;14.768;2023-04-15T04:12:48;1.40;;;1.30;;
46875;SDS011;32866;50.160;14.768;2023-04-15T04:15:13;1.83;;;1.63;;
46875;SDS011;32866;50.160;14.768;2023-04-15T04:17:39;1.50;;;1.40;;
46875;SDS011;32866;50.160;14.768;2023-04-15T04:20:04;2.10;;;1.90;;
46875;SDS011;32866;50.160;14.768;2023-04-15T04:22:30;2.97;;;1.80;;
46875;SDS011;32866;50.160;14.768;2023-04-15T04:25:01;1.77;;;1.67;;
46875;SDS011;32866;50.160;14.768;2023-04-15T04:27:26;2.05;;;1.85;;
46875;SDS011;32866;50.160;14.768;2023-04-15T04:29:52;2.13;;;1.80;;
46875;SDS011;32866;50.160;14.768;2023-04-15T04:32:17;1.98;;;1.67;;
46875;SDS011;32866;50.160;14.768;2023-04-15T04:34:42;1.50;;;1.33;;
46875;SDS011;32866;50.160;14.768;2023-04-15T04:37:08;1.80;;;1.70;;
46875;SDS011;32866;50.160;14.768;2023-04-15T04:39:33;2.10;;;1.75;;
46875;SDS011;32866;50.160;14.768;2023-04-15T04:41:58;3.17;;;1.95;;
46875;SDS011;32866;50.160;14.768;2023-04-15T04:44:25;2.93;;;2.27;;
46875;SDS011;32866;50.160;14.768;2023-04-15T04:46:51;2.15;;;1.95;;
46875;SDS011;32866;50.160;14.768;2023-04-15T04:49:16;2.08;;;1.67;;
46875;SDS011;32866;50.160;14.768;2023-04-15T04:51:41;1.65;;;1.55;;
46875;SDS011;32866;50.160;14.768;2023-04-15T04:54:07;2.10;;;1.60;;
46875;SDS011;32866;50.160;14.768;2023-04-15T04:56:32;2.10;;;1.90;;
46875;SDS011;32866;50.160;14.768;2023-04-15T04:58:58;2.17;;;1.98;;
46875;SDS011;32866;50.160;14.768;2023-04-15T05:01:24;2.10;;;1.90;;
46875;SDS011;32866;50.160;14.768;2023-04-15T05:03:51;2.10;;;1.90;;
46875;SDS011;32866;50.160;14.768;2023-04-15T05:06:17;2.17;;;1.98;;
46875;SDS011;32866;50.160;14.768;2023-04-15T05:08:42;3.00;;;2.40;;
46875;SDS011;32866;50.160;14.768;2023-04-15T05:11:07;2.45;;;2.20;;
46875;SDS011;32866;50.160;14.768;2023-04-15T05:13:33;2.55;;;2.35;;
46875;SDS011;32866;50.160;14.768;2023-04-15T05:15:58;2.22;;;2.00;;
46875;SDS011;32866;50.160;14.768;2023-04-15T05:18:23;1.95;;;1.83;;
46875;SDS011;32866;50.160;14.768;2023-04-15T05:20:49;2.00;;;1.80;;
46875;SDS011;32866;50.160;14.768;2023-04-15T05:23:15;2.05;;;1.85;;
46875;SDS011;32866;50.160;14.768;2023-04-15T05:25:41;2.10;;;1.90;;
46875;SDS011;32866;50.160;14.768;2023-04-15T05:28:07;1.77;;;1.60;;
46875;SDS011;32866;50.160;14.768;2023-04-15T05:30:32;2.42;;;1.60;;
46875;SDS011;32866;50.160;14.768;2023-04-15T05:32:58;1.60;;;1.50;;
46875;SDS011;32866;50.160;14.768;2023-04-15T05:35:23;1.70;;;1.60;;
46875;SDS011;32866;50.160;14.768;2023-04-15T05:37:49;1.67;;;1.48;;
46875;SDS011;32866;50.160;14.768;2023-04-15T05:40:14;1.55;;;1.45;;
46875;SDS011;32866;50.160;14.768;2023-04-15T05:42:40;1.30;;;1.15;;
46875;SDS011;32866;50.160;14.768;2023-04-15T05:45:05;1.23;;;1.23;;
46875;SDS011;32866;50.160;14.768;2023-04-15T05:47:33;4.10;;;1.50;;
46875;SDS011;32866;50.160;14.768;2023-04-15T05:49:59;1.47;;;1.37;;
46875;SDS011;32866;50.160;14.768;2023-04-15T05:52:25;1.48;;;1.30;;
46875;SDS011;32866;50.160;14.768;2023-04-15T05:54:50;1.40;;;1.30;;
46875;SDS011;32866;50.160;14.768;2023-04-15T05:57:15;1.55;;;1.40;;
46875;SDS011;32866;50.160;14.768;2023-04-15T05:59:41;1.45;;;1.35;;
46875;SDS011;32866;50.160;14.768;2023-04-15T06:02:06;1.30;;;1.20;;
46875;SDS011;32866;50.160;14.768;2023-04-15T06:04:33;1.30;;;1.20;;
46875;SDS011;32866;50.160;14.768;2023-04-15T06:06:58;1.15;;;1.05;;
46875;SDS011;32866;50.160;14.768;2023-04-15T06:09:24;1.30;;;1.20;;
46875;SDS011;32866;50.160;14.768;2023-04-15T06:11:50;1.52;;;1.42;;
46875;SDS011;32866;50.160;14.768;2023-04-15T06:14:25;1.40;;;1.20;;
46875;SDS011;32866;50.160;14.768;2023-04-15T06:16:50;1.53;;;1.20;;
46875;SDS011;32866;50.160;14.768;2023-04-15T06:19:16;1.15;;;1.05;;
46875;SDS011;32866;50.160;14.768;2023-04-15T06:21:42;0.93;;;0.93;;
46875;SDS011;32866;50.160;14.768;2023-04-15T06:24:08;1.60;;;1.42;;
46875;SDS011;32866;50.160;14.768;2023-04-15T06:26:33;0.80;;;0.80;;
46875;SDS011;32866;50.160;14.768;2023-04-15T06:28:59;1.08;;;0.98;;
46875;SDS011;32866;50.160;14.768;2023-04-15T06:31:24;1.17;;;1.00;;
46875;SDS011;32866;50.160;14.768;2023-04-15T06:33:50;2.33;;;0.77;;
46875;SDS011;32866;50.160;14.768;2023-04-15T06:36:15;0.90;;;0.82;;
46875;SDS011;32866;50.160;14.768;2023-04-15T06:38:40;1.25;;;0.90;;
46875;SDS011;32866;50.160;14.768;2023-04-15T06:41:06;0.68;;;0.63;;
46875;SDS011;32866;50.160;14.768;2023-04-15T06:43:31;1.77;;;1.35;;
46875;SDS011;32866;50.160;14.768;2023-04-15T06:45:57;1.42;;;1.15;;
46875;SDS011;32866;50.160;14.768;2023-04-15T06:48:23;0.75;;;0.75;;
46875;SDS011;32866;50.160;14.768;2023-04-15T06:50:48;0.90;;;0.80;;
46875;SDS011;32866;50.160;14.768;2023-04-15T06:53:14;0.77;;;0.77;;
46875;SDS011;32866;50.160;14.768;2023-04-15T06:55:39;1.38;;;0.75;;
46875;SDS011;32866;50.160;14.768;2023-04-15T06:58:05;1.33;;;1.00;;
46875;SDS011;32866;50.160;14.768;2023-04-15T07:00:31;1.13;;;0.85;;
46875;SDS011;32866;50.160;14.768;2023-04-15T07:02:57;0.30;;;0.30;;
46875;SDS011;32866;50.160;14.768;2023-04-15T07:05:23;0.43;;;0.43;;
46875;SDS011;32866;50.160;14.768;2023-04-15T07:10:15;0.90;;;0.90;;
46875;SDS011;32866;50.160;14.768;2023-04-15T07:12:40;1.02;;;0.95;;
46875;SDS011;32866;50.160;14.768;2023-04-15T07:15:06;0.70;;;0.70;;
46875;SDS011;32866;50.160;14.768;2023-04-15T07:17:31;0.77;;;0.77;;
46875;SDS011;32866;50.160;14.768;2023-04-15T07:19:57;1.30;;;1.20;;
46875;SDS011;32866;50.160;14.768;2023-04-15T07:22:22;1.25;;;0.95;;
46875;SDS011;32866;50.160;14.768;2023-04-15T07:24:48;1.15;;;0.88;;
46875;SDS011;32866;50.160;14.768;2023-04-15T07:27:13;1.13;;;1.00;;
46875;SDS011;32866;50.160;14.768;2023-04-15T07:29:39;0.73;;;0.70;;
46875;SDS011;32866;50.160;14.768;2023-04-15T07:32:04;1.02;;;0.93;;
46875;SDS011;32866;50.160;14.768;2023-04-15T07:34:30;1.13;;;1.00;;
46875;SDS011;32866;50.160;14.768;2023-04-15T07:36:55;0.57;;;0.50;;
46875;SDS011;32866;50.160;14.768;2023-04-15T07:39:21;1.05;;;0.98;;
46875;SDS011;32866;50.160;14.768;2023-04-15T07:41:47;1.05;;;0.90;;
46875;SDS011;32866;50.160;14.768;2023-04-15T07:44:13;1.15;;;0.68;;
46875;SDS011;32866;50.160;14.768;2023-04-15T07:46:38;0.95;;;0.95;;
46875;SDS011;32866;50.160;14.768;2023-04-15T07:49:04;1.27;;;1.08;;
46875;SDS011;32866;50.160;14.768;2023-04-15T07:51:29;0.65;;;0.60;;
46875;SDS011;32866;50.160;14.768;2023-04-15T07:53:54;1.60;;;0.80;;
46875;SDS011;32866;50.160;14.768;2023-04-15T07:56:20;1.35;;;1.10;;
46875;SDS011;32866;50.160;14.768;2023-04-15T07:58:46;0.75;;;0.75;;
46875;SDS011;32866;50.160;14.768;2023-04-15T08:01:11;1.23;;;1.05;;
46875;SDS011;32866;50.160;14.768;2023-04-15T08:03:37;0.68;;;0.68;;
46875;SDS011;32866;50.160;14.768;2023-04-15T08:08:28;1.10;;;1.00;;
46875;SDS011;32866;50.160;14.768;2023-04-15T08:10:53;0.95;;;0.95;;
46875;SDS011;32866;50.160;14.768;2023-04-15T08:13:19;1.10;;;1.00;;
46875;SDS011;32866;50.160;14.768;2023-04-15T08:15:44;1.15;;;1.05;;
46875;SDS011;32866;50.160;14.768;2023-04-15T08:18:10;0.90;;;0.90;;
46875;SDS011;32866;50.160;14.768;2023-04-15T08:20:36;1.10;;;1.10;;
46875;SDS011;32866;50.160;14.768;2023-04-15T08:23:01;0.93;;;0.90;;
46875;SDS011;32866;50.160;14.768;2023-04-15T08:25:27;1.17;;;1.08;;
46875;SDS011;32866;50.160;14.768;2023-04-15T08:27:54;2.25;;;1.20;;
46875;SDS011;32866;50.160;14.768;2023-04-15T08:30:21;1.50;;;1.10;;
46875;SDS011;32866;50.160;14.768;2023-04-15T08:32:46;1.10;;;1.02;;
46875;SDS011;32866;50.160;14.768;2023-04-15T08:35:12;1.30;;;1.20;;
46875;SDS011;32866;50.160;14.768;2023-04-15T08:37:37;1.48;;;1.27;;
46875;SDS011;32866;50.160;14.768;2023-04-15T08:40:03;1.13;;;0.82;;
46875;SDS011;32866;50.160;14.768;2023-04-15T08:42:34;1.23;;;1.13;;
46875;SDS011;32866;50.160;14.768;2023-04-15T08:45:03;1.60;;;1.50;;
46875;SDS011;32866;50.160;14.768;2023-04-15T08:47:29;1.80;;;1.47;;
46875;SDS011;32866;50.160;14.768;2023-04-15T08:49:58;1.67;;;1.30;;
46875;SDS011;32866;50.160;14.768;2023-04-15T08:52:26;1.48;;;1.20;;
46875;SDS011;32866;50.160;14.768;2023-04-15T08:54:56;1.37;;;1.27;;
46875;SDS011;32866;50.160;14.768;2023-04-15T08:57:25;1.20;;;1.10;;
46875;SDS011;32866;50.160;14.768;2023-04-15T08:59:52;1.57;;;1.30;;
46875;SDS011;32866;50.160;14.768;2023-04-15T09:02:20;5.07;;;2.00;;
46875;SDS011;32866;50.160;14.768;2023-04-15T09:04:46;2.10;;;1.70;;
46875;SDS011;32866;50.160;14.768;2023-04-15T09:07:11;2.33;;;1.92;;
46875;SDS011;32866;50.160;14.768;2023-04-15T09:09:36;2.47;;;1.67;;
46875;SDS011;32866;50.160;14.768;2023-04-15T09:12:04;2.20;;;1.60;;
46875;SDS011;32866;50.160;14.768;2023-04-15T09:14:29;2.17;;;2.00;;
46875;SDS011;32866;50.160;14.768;2023-04-15T09:17:00;1.43;;;1.33;;
46875;SDS011;32866;50.160;14.768;2023-04-15T09:19:27;1.70;;;1.50;;
46875;SDS011;32866;50.160;14.768;2023-04-15T09:21:53;2.10;;;1.48;;
46875;SDS011;32866;50.160;14.768;2023-04-15T09:24:21;1.63;;;1.50;;
46875;SDS011;32866;50.160;14.768;2023-04-15T09:26:47;1.75;;;1.42;;
46875;SDS011;32866;50.160;14.768;2023-04-15T09:29:16;2.73;;;1.93;;
46875;SDS011;32866;50.160;14.768;2023-04-15T09:31:42;2.27;;;1.73;;
46875;SDS011;32866;50.160;14.768;2023-04-15T09:34:07;1.63;;;1.50;;
46875;SDS011;32866;50.160;14.768;2023-04-15T09:36:52;1.85;;;1.50;;
46875;SDS011;32866;50.160;14.768;2023-04-15T09:39:20;3.03;;;2.28;;
46875;SDS011;32866;50.160;14.768;2023-04-15T09:41:45;1.52;;;1.40;;
46875;SDS011;32866;50.160;14.768;2023-04-15T09:44:23;2.38;;;1.85;;
46875;SDS011;32866;50.160;14.768;2023-04-15T09:46:49;2.13;;;1.40;;
46875;SDS011;32866;50.160;14.768;2023-04-15T09:49:15;1.48;;;1.38;;
46875;SDS011;32866;50.160;14.768;2023-04-15T09:51:41;1.90;;;1.53;;
46875;SDS011;32866;50.160;14.768;2023-04-15T09:56:34;1.57;;;1.27;;
46875;SDS011;32866;50.160;14.768;2023-04-15T09:59:01;3.47;;;1.60;;
46875;SDS011;32866;50.160;14.768;2023-04-15T10:01:27;2.97;;;1.45;;
46875;SDS011;32866;50.160;14.768;2023-04-15T10:08:47;2.40;;;1.55;;
46875;SDS011;32866;50.160;14.768;2023-04-15T10:11:13;2.17;;;1.45;;
46875;SDS011;32866;50.160;14.768;2023-04-15T10:13:38;1.25;;;1.15;;
46875;SDS011;32866;50.160;14.768;2023-04-15T10:18:44;2.17;;;1.40;;
46875;SDS011;32866;50.160;14.768;2023-04-15T10:21:11;1.40;;;0.97;;
46875;SDS011;32866;50.160;14.768;2023-04-15T10:23:38;1.77;;;1.67;;
46875;SDS011;32866;50.160;14.768;2023-04-15T10:26:04;2.30;;;1.20;;
46875;SDS011;32866;50.160;14.768;2023-04-15T10:28:30;1.60;;;1.20;;
46875;SDS011;32866;50.160;14.768;2023-04-15T10:30:56;1.35;;;1.25;;
46875;SDS011;32866;50.160;14.768;2023-04-15T10:33:23;1.20;;;1.10;;
46875;SDS011;32866;50.160;14.768;2023-04-15T10:35:50;1.60;;;1.33;;
46875;SDS011;32866;50.160;14.768;2023-04-15T10:43:37;1.67;;;1.57;;
46875;SDS011;32866;50.160;14.768;2023-04-15T10:46:04;1.75;;;1.27;;
46875;SDS011;32866;50.160;14.768;2023-04-15T10:48:30;1.20;;;1.10;;
46875;SDS011;32866;50.160;14.768;2023-04-15T10:50:56;1.63;;;1.52;;
46875;SDS011;32866;50.160;14.768;2023-04-15T10:53:27;3.60;;;1.60;;
46875;SDS011;32866;50.160;14.768;2023-04-15T10:55:53;2.30;;;1.33;;
46875;SDS011;32866;50.160;14.768;2023-04-15T10:58:18;1.52;;;1.27;;
46875;SDS011;32866;50.160;14.768;2023-04-15T11:00:52;1.47;;;1.03;;
46875;SDS011;32866;50.160;14.768;2023-04-15T11:03:39;1.63;;;1.30;;
46875;SDS011;32866;50.160;14.768;2023-04-15T11:06:04;3.47;;;2.13;;
46875;SDS011;32866;50.160;14.768;2023-04-15T11:08:52;3.03;;;1.30;;
46875;SDS011;32866;50.160;14.768;2023-04-15T11:11:23;1.10;;;1.00;;
46875;SDS011;32866;50.160;14.768;2023-04-15T11:14:09;1.30;;;1.20;;
46875;SDS011;32866;50.160;14.768;2023-04-15T11:16:43;2.50;;;1.70;;
46875;SDS011;32866;50.160;14.768;2023-04-15T11:19:12;1.83;;;1.67;;
46875;SDS011;32866;50.160;14.768;2023-04-15T11:21:37;1.90;;;1.50;;
46875;SDS011;32866;50.160;14.768;2023-04-15T11:26:28;1.93;;;1.50;;
46875;SDS011;32866;50.160;14.768;2023-04-15T11:28:54;7.18;;;2.03;;
46875;SDS011;32866;50.160;14.768;2023-04-15T11:31:19;1.83;;;1.48;;
46875;SDS011;32866;50.160;14.768;2023-04-15T11:33:57;2.20;;;1.60;;
46875;SDS011;32866;50.160;14.768;2023-04-15T11:36:26;1.87;;;1.40;;
46875;SDS011;32866;50.160;14.768;2023-04-15T11:38:52;1.13;;;1.03;;
46875;SDS011;32866;50.160;14.768;2023-04-15T11:41:21;1.48;;;1.17;;
46875;SDS011;32866;50.160;14.768;2023-04-15T11:43:47;1.40;;;1.00;;
46875;SDS011;32866;50.160;14.768;2023-04-15T11:46:13;1.67;;;1.10;;
46875;SDS011;32866;50.160;14.768;2023-04-15T11:48:41;1.27;;;1.17;;
46875;SDS011;32866;50.160;14.768;2023-04-15T11:51:10;2.03;;;1.23;;
46875;SDS011;32866;50.160;14.768;2023-04-15T11:53:41;1.30;;;0.90;;
46875;SDS011;32866;50.160;14.768;2023-04-15T11:58:46;1.37;;;1.27;;
46875;SDS011;32866;50.160;14.768;2023-04-15T12:01:15;2.00;;;1.00;;
46875;SDS011;32866;50.160;14.768;2023-04-15T12:03:41;1.40;;;1.00;;
46875;SDS011;32866;50.160;14.768;2023-04-15T12:16:30;2.30;;;1.10;;
46875;SDS011;32866;50.160;14.768;2023-04-15T12:18:56;1.65;;;1.00;;
46875;SDS011;32866;50.160;14.768;2023-04-15T12:21:26;0.98;;;0.80;;
46875;SDS011;32866;50.160;14.768;2023-04-15T12:24:00;1.25;;;0.90;;
46875;SDS011;32866;50.160;14.768;2023-04-15T12:26:33;1.17;;;0.70;;
46875;SDS011;32866;50.160;14.768;2023-04-15T12:29:06;1.10;;;1.00;;
46875;SDS011;32866;50.160;14.768;2023-04-15T12:31:33;1.67;;;1.02;;
46875;SDS011;32866;50.160;14.768;2023-04-15T12:34:02;1.92;;;1.38;;
46875;SDS011;32866;50.160;14.768;2023-04-15T12:36:29;1.08;;;0.95;;
46875;SDS011;32866;50.160;14.768;2023-04-15T12:39:00;1.65;;;1.20;;
46875;SDS011;32866;50.160;14.768;2023-04-15T12:41:25;0.93;;;0.90;;
46875;SDS011;32866;50.160;14.768;2023-04-15T12:43:51;1.35;;;1.00;;
46875;SDS011;32866;50.160;14.768;2023-04-15T12:46:16;1.85;;;1.30;;
46875;SDS011;32866;50.160;14.768;2023-04-15T12:51:08;1.08;;;0.98;;
46875;SDS011;32866;50.160;14.768;2023-04-15T12:53:33;2.30;;;1.10;;
46875;SDS011;32866;50.160;14.768;2023-04-15T12:55:58;2.90;;;1.60;;
46875;SDS011;32866;50.160;14.768;2023-04-15T12:58:25;1.98;;;1.42;;
46875;SDS011;32866;50.160;14.768;2023-04-15T13:03:16;1.52;;;1.17;;
46875;SDS011;32866;50.160;14.768;2023-04-15T13:05:42;2.83;;;0.98;;
46875;SDS011;32866;50.160;14.768;2023-04-15T13:08:07;1.90;;;1.00;;
46875;SDS011;32866;50.160;14.768;2023-04-15T13:10:33;0.90;;;0.90;;
46875;SDS011;32866;50.160;14.768;2023-04-15T13:13:00;1.75;;;1.25;;
46875;SDS011;32866;50.160;14.768;2023-04-15T13:15:26;2.92;;;1.48;;
46875;SDS011;32866;50.160;14.768;2023-04-15T13:20:16;1.48;;;1.17;;
46875;SDS011;32866;50.160;14.768;2023-04-15T13:25:07;2.35;;;1.10;;
46875;SDS011;32866;50.160;14.768;2023-04-15T13:29:58;0.73;;;0.70;;
46875;SDS011;32866;50.160;14.768;2023-04-15T13:34:49;1.38;;;0.93;;
46875;SDS011;32866;50.160;14.768;2023-04-15T13:37:15;1.13;;;1.10;;
46875;SDS011;32866;50.160;14.768;2023-04-15T13:42:05;0.98;;;0.95;;
46875;SDS011;32866;50.160;14.768;2023-04-15T13:44:31;0.90;;;0.90;;
46875;SDS011;32866;50.160;14.768;2023-04-15T13:46:56;1.15;;;1.05;;
46875;SDS011;32866;50.160;14.768;2023-04-15T13:49:21;2.33;;;1.20;;
46875;SDS011;32866;50.160;14.768;2023-04-15T13:51:47;2.15;;;1.27;;
46875;SDS011;32866;50.160;14.768;2023-04-15T13:54:12;1.13;;;1.02;;
46875;SDS011;32866;50.160;14.768;2023-04-15T13:56:38;1.30;;;0.95;;
46875;SDS011;32866;50.160;14.768;2023-04-15T14:01:28;2.38;;;0.90;;
46875;SDS011;32866;50.160;14.768;2023-04-15T14:06:19;0.88;;;0.65;;
46875;SDS011;32866;50.160;14.768;2023-04-15T14:11:10;0.68;;;0.68;;
46875;SDS011;32866;50.160;14.768;2023-04-15T14:13:35;0.80;;;0.80;;
46875;SDS011;32866;50.160;14.768;2023-04-15T14:16:01;0.93;;;0.88;;
46875;SDS011;32866;50.160;14.768;2023-04-15T14:20:52;1.25;;;1.00;;
46875;SDS011;32866;50.160;14.768;2023-04-15T14:23:17;1.02;;;0.85;;
46875;SDS011;32866;50.160;14.768;2023-04-15T14:28:11;1.55;;;1.17;;
46875;SDS011;32866;50.160;14.768;2023-04-15T14:30:36;0.93;;;0.93;;
46875;SDS011;32866;50.160;14.768;2023-04-15T14:33:02;0.93;;;0.82;;
46875;SDS011;32866;50.160;14.768;2023-04-15T14:35:27;1.10;;;1.00;;
46875;SDS011;32866;50.160;14.768;2023-04-15T14:40:19;1.55;;;0.85;;
46875;SDS011;32866;50.160;14.768;2023-04-15T14:42:45;1.98;;;1.02;;
46875;SDS011;32866;50.160;14.768;2023-04-15T14:45:10;1.42;;;1.02;;
46875;SDS011;32866;50.160;14.768;2023-04-15T14:47:36;1.05;;;1.00;;
46875;SDS011;32866;50.160;14.768;2023-04-15T14:50:01;1.08;;;0.93;;
46875;SDS011;32866;50.160;14.768;2023-04-15T14:52:27;1.67;;;1.13;;
46875;SDS011;32866;50.160;14.768;2023-04-15T14:54:53;2.10;;;1.05;;
46875;SDS011;32866;50.160;14.768;2023-04-15T14:59:43;2.47;;;0.95;;
46875;SDS011;32866;50.160;14.768;2023-04-15T15:02:09;3.22;;;0.90;;
46875;SDS011;32866;50.160;14.768;2023-04-15T15:04:34;1.80;;;1.35;;
46875;SDS011;32866;50.160;14.768;2023-04-15T15:07:00;1.70;;;0.98;;
46875;SDS011;32866;50.160;14.768;2023-04-15T15:09:25;1.27;;;0.95;;
46875;SDS011;32866;50.160;14.768;2023-04-15T15:11:51;1.15;;;0.80;;
46875;SDS011;32866;50.160;14.768;2023-04-15T15:14:16;2.40;;;1.27;;
46875;SDS011;32866;50.160;14.768;2023-04-15T15:19:07;1.00;;;0.90;;
46875;SDS011;32866;50.160;14.768;2023-04-15T15:21:33;1.88;;;1.17;;
46875;SDS011;32866;50.160;14.768;2023-04-15T15:23:58;1.10;;;0.85;;
46875;SDS011;32866;50.160;14.768;2023-04-15T15:28:49;1.98;;;1.33;;
46875;SDS011;32866;50.160;14.768;2023-04-15T15:31:15;1.75;;;1.05;;
46875;SDS011;32866;50.160;14.768;2023-04-15T15:33:40;1.33;;;0.90;;
46875;SDS011;32866;50.160;14.768;2023-04-15T15:36:06;1.65;;;1.10;;
46875;SDS011;32866;50.160;14.768;2023-04-15T15:38:31;1.27;;;1.17;;
46875;SDS011;32866;50.160;14.768;2023-04-15T15:40:56;1.40;;;1.30;;
46875;SDS011;32866;50.160;14.768;2023-04-15T15:43:22;2.13;;;0.90;;
46875;SDS011;32866;50.160;14.768;2023-04-15T15:45:47;1.00;;;0.90;;
46875;SDS011;32866;50.160;14.768;2023-04-15T15:48:15;1.60;;;1.17;;
46875;SDS011;32866;50.160;14.768;2023-04-15T15:50:42;2.78;;;1.20;;
46875;SDS011;32866;50.160;14.768;2023-04-15T15:53:09;2.38;;;1.42;;